Historyczne dane pomiarowe

Dodano dane terminowe – wersja testowa.

Dane z okresu 1951-2019

Wersja bazy: 1.34 [2019-03-16, lista zmian], aktualizacja planowana na 2019-04-15

Dane meteo z obszaru Polski uzyskane na podstawie danych udostępnionych przez Instytut Meteorologii i Gospodarki Wodnej – Państwowy Instytut Badawczy.

 

Wybierz Datę:    

       

TemperaturaWilgotnośćWiatrCiśnienieOpadyŚniegCzas trwania zjawisk
 Stacja t tx tn tng RH VA  wxwx mslp ppp RRR   cm mm wxwxwxwxwxwxwx
1983-08-14 14.9 18.6 9.4--- 4.0 3.0---- 0.0------------
1983-08-13 15.0 17.5 12.4--- 6.0 2.7---- 6.2------------
1983-08-12 19.4 26.5 16.1--- 3.7 2.0---- 1.1------------
1983-08-11 19.6 24.5 14.4--- 5.7 1.0---- 0.8------------
1983-08-10 20.3 26.3 11.2--- 1.3 2.0---- 0.0------------
1983-08-09 20.6 26.7 13.2--- 2.3 2.0---- 0.0------------
1983-08-08 20.5 26.0 14.5--- 5.3 2.0---- 0.7------------
1983-08-07 19.5 26.8 15.0--- 5.3 3.0---- 7.1------------
1983-08-06 17.9 21.5 8.4--- 4.3 2.0---- 7.0------------
1983-08-05 14.3 18.5 10.5--- 4.3 3.0---- 0.0------------
1983-08-04 13.4 22.4 12.0--- 7.0 3.0---- 6.5------------
1983-08-03 22.8 27.5 16.4--- 6.0 2.0---- 0.0------------
1983-08-02 23.8 29.0 11.8--- 2.3 3.0---- 0.0------------
1983-08-01 21.2 26.5 9.7--- 0.7 3.3---- 0.0------------
1983-07-31 17.5 23.6 10.5--- 2.0 2.3---- 0.0------------
1983-07-30 17.6 21.0 15.1--- 6.0 3.0---- 0.0------------
1983-07-29 18.8 25.0 12.8--- 3.0 3.0---- 0.1------------
1983-07-28 22.2 27.5 17.4--- 4.3 2.0---- 0.0------------
1983-07-27 22.3 29.4 14.5--- 1.3 3.0---- 3.5------------
1983-07-26 20.1 26.7 13.4--- 4.3 3.0---- 0.0------------
1983-07-25 14.4 19.6 8.7--- 6.0 3.0---- 0.0------------
1983-07-24 15.4 19.0 13.3--- 6.0 2.0---- 0.1------------
1983-07-23 14.1 17.4 11.7--- 6.3 2.7---- 9.1------------
1983-07-22 14.1 18.0 10.1--- 6.0 3.0---- 0.4------------
1983-07-21 12.1 16.5 9.0--- 6.0 3.0---- 2.1------------
1983-07-20 15.9 24.4 11.5--- 6.0 3.0---- 25.6------------
1983-07-19 23.0 28.8 15.9--- 5.0 3.0---- 0.6------------
1983-07-18 20.2 27.4 9.4--- 0.3 1.0---- 0.0------------
1983-07-17 20.1 24.8 16.4--- 3.7 1.7---- 0.0------------
1983-07-16 21.2 28.0 13.2--- 2.0 2.0---- 0.0------------
1983-07-15 17.8 24.0 11.8--- 1.0 2.0---- 0.0------------
1983-07-14 17.1 21.0 15.6--- 7.3 2.0---- 55.3------------
1983-07-13 17.9 23.2 14.2--- 7.0 1.0---- 2.0------------
1983-07-12 18.6 24.1 15.8--- 5.0 1.0---- 3.0------------
1983-07-11 19.6 26.5 15.3--- 5.0 3.0---- 24.3------------
1983-07-10 21.2 28.2 12.8--- 2.0 2.0---- 0.3------------
1983-07-09 21.1 28.3 10.5--- 1.3 2.0---- 0.0------------
1983-07-08 19.3 26.5 7.2--- 0.3 2.0---- 0.0------------
1983-07-07 20.2 27.2 9.5--- 0.7 2.0---- 0.0------------
1983-07-06 20.1 28.0 7.9--- 0.7 2.0---- 0.0------------
1983-07-05 18.9 25.0 10.5--- 1.3 2.0---- 0.0------------
1983-07-04 19.0 26.0 7.5--- 3.3 1.0---- 0.0------------
1983-07-03 18.5 24.0 10.8--- 1.3 3.0---- 0.0------------
1983-07-02 19.3 25.0 13.5--- 5.3 3.0---- 0.0------------
1983-07-01 19.2 27.0 11.3--- 1.3 2.0---- 0.0------------
1983-06-30 16.4 23.0 6.2--- 2.0 2.0---- 0.0------------
1983-06-29 15.4 20.1 7.5--- 2.0 3.0---- 0.0------------
1983-06-28 16.7 20.7 15.4--- 7.0 2.0---- 13.9------------
1983-06-27 20.6 28.0 13.0--- 5.0 3.0---- 2.5------------
1983-06-26 21.2 25.8 16.4--- 3.7 2.3---- 0.0------------
1983-06-25 22.0 29.0 10.5--- 3.7 3.0---- 0.3------------
1983-06-24 17.5 26.0 4.6--- 0.0 3.0---- 0.0------------
1983-06-23 14.5 21.0 4.2--- 0.0 2.0---- 0.0------------
1983-06-22 13.7 21.0 6.2--- 0.3 2.0---- 0.0------------
1983-06-21 18.5 24.7 9.1--- 2.0 3.3---- 0.0------------
1983-06-20 19.5 25.0 14.7--- 6.0 2.0---- 0.0------------
1983-06-19 16.6 21.2 12.9--- 7.3 4.0---- 0.0------------
1983-06-18 12.9 16.1 11.2--- 8.0 3.0---- 10.5------------
1983-06-17 13.0 17.5 4.6--- 5.3 4.0---- 3.9------------
1983-06-16 12.7 15.5 10.6--- 7.0 3.0---- 1.2------------
2064.7 ms

 

Źródłem pochodzenia danych jest Instytut Meteorologii i Gospodarki Wodnej – Państwowy Instytut Badawczy. Dane Instytutu Meteorologii i Gospodarki Wodnej – Państwowego Instytutu Badawczego zostały przetworzone.

Dane źródłowe można odnaleźć na stronie https://dane.imgw.pl